Lake Charles Regional Airport Lake Charles US
ICAO: KLCH
IATA: LCH
Category: Medium
Scheduled Services: Yes

Elevation: 15 ft
TransAlt. 18000 ft.

Airport Communications:
APP/DEP:119.35
ATIS:118.75
CLNC DEL:126.25
CTAF:120.7
GND:121.8
DE RIDDER RDO:122.3
TWR:120.7
UNICOM:122.95

KLCH Zoom In..

Runways:

(A) RW 05 length 5200 ft width 100 ft
---- / hdg 49

(B) RW 15 length 6500 ft width 150 ft
ILS 109.10 / hdg 152

(C) RW 23 length 5200 ft width 100 ft
---- / hdg 229

(D) RW 33 length 6500 ft width 150 ft
---- / hdg 332

Location; KLCH
Day. 25 / Time. 10.27 Zulu
* Altimeter: 30.04
* Temperature: 15° c. 59°f.
* Wind from: 000° Speed 00 kn.
Dewpoint: 14° c.
Visibility: 1/4 Statute Miles.
Conditions: Fog.

KLCH 251027Z AUTO 00000KT 1/4SM FG VV001 15/14 A3004 RMK AO2 T01500144 $


Wind - Calm.

  YouTube Music Video
 
jpsmedia.com for Web Design  worldairports.se 2018   terms of use